sensor_id;sensor_type;location;lat;lon;timestamp;temperature;humidity
37678;DHT22;23517;50.390;8.616;2023-09-07T00:02:05;15.00;61.60
37678;DHT22;23517;50.390;8.616;2023-09-07T00:04:32;14.90;61.90
37678;DHT22;23517;50.390;8.616;2023-09-07T00:06:59;14.90;62.70
37678;DHT22;23517;50.390;8.616;2023-09-07T00:09:27;14.90;62.10
37678;DHT22;23517;50.390;8.616;2023-09-07T00:11:53;14.80;61.80
37678;DHT22;23517;50.390;8.616;2023-09-07T00:14:20;14.80;62.60
37678;DHT22;23517;50.390;8.616;2023-09-07T00:16:47;14.80;62.80
37678;DHT22;23517;50.390;8.616;2023-09-07T00:19:14;14.80;62.80
37678;DHT22;23517;50.390;8.616;2023-09-07T00:21:41;14.80;61.70
37678;DHT22;23517;50.390;8.616;2023-09-07T00:24:08;14.70;62.50
37678;DHT22;23517;50.390;8.616;2023-09-07T00:26:34;14.70;63.70
37678;DHT22;23517;50.390;8.616;2023-09-07T00:29:01;14.70;63.40
37678;DHT22;23517;50.390;8.616;2023-09-07T00:31:28;14.60;62.30
37678;DHT22;23517;50.390;8.616;2023-09-07T00:33:55;14.50;63.20
37678;DHT22;23517;50.390;8.616;2023-09-07T00:36:22;14.50;64.10
37678;DHT22;23517;50.390;8.616;2023-09-07T00:38:49;14.60;64.30
37678;DHT22;23517;50.390;8.616;2023-09-07T00:41:16;14.50;63.70
37678;DHT22;23517;50.390;8.616;2023-09-07T00:43:42;14.50;64.00
37678;DHT22;23517;50.390;8.616;2023-09-07T00:46:09;14.50;63.10
37678;DHT22;23517;50.390;8.616;2023-09-07T00:48:37;14.50;63.60
37678;DHT22;23517;50.390;8.616;2023-09-07T00:51:04;14.40;64.50
37678;DHT22;23517;50.390;8.616;2023-09-07T00:53:31;14.40;64.20
37678;DHT22;23517;50.390;8.616;2023-09-07T00:55:58;14.40;64.40
37678;DHT22;23517;50.390;8.616;2023-09-07T00:58:26;14.40;63.90
37678;DHT22;23517;50.390;8.616;2023-09-07T01:00:53;14.40;63.10
37678;DHT22;23517;50.390;8.616;2023-09-07T01:03:20;14.40;63.70
37678;DHT22;23517;50.390;8.616;2023-09-07T01:05:52;14.30;63.40
37678;DHT22;23517;50.390;8.616;2023-09-07T01:08:45;14.30;64.20
37678;DHT22;23517;50.390;8.616;2023-09-07T01:11:14;14.30;65.20
37678;DHT22;23517;50.390;8.616;2023-09-07T01:13:42;14.30;64.20
37678;DHT22;23517;50.390;8.616;2023-09-07T01:16:10;14.30;64.00
37678;DHT22;23517;50.390;8.616;2023-09-07T01:18:38;14.30;64.40
37678;DHT22;23517;50.390;8.616;2023-09-07T01:21:07;14.20;64.80
37678;DHT22;23517;50.390;8.616;2023-09-07T01:23:36;14.20;65.50
37678;DHT22;23517;50.390;8.616;2023-09-07T01:26:07;14.20;64.40
37678;DHT22;23517;50.390;8.616;2023-09-07T01:28:35;14.20;65.60
37678;DHT22;23517;50.390;8.616;2023-09-07T01:31:04;14.10;64.00
37678;DHT22;23517;50.390;8.616;2023-09-07T01:33:31;14.10;64.90
37678;DHT22;23517;50.390;8.616;2023-09-07T01:35:58;14.10;64.00
37678;DHT22;23517;50.390;8.616;2023-09-07T01:38:24;14.10;64.20
37678;DHT22;23517;50.390;8.616;2023-09-07T01:40:51;14.10;66.20
37678;DHT22;23517;50.390;8.616;2023-09-07T01:43:19;14.10;64.70
37678;DHT22;23517;50.390;8.616;2023-09-07T01:45:46;14.10;64.30
37678;DHT22;23517;50.390;8.616;2023-09-07T01:48:14;14.10;63.90
37678;DHT22;23517;50.390;8.616;2023-09-07T01:50:41;14.00;63.70
37678;DHT22;23517;50.390;8.616;2023-09-07T01:53:08;14.00;64.30
37678;DHT22;23517;50.390;8.616;2023-09-07T01:55:34;14.00;64.80
37678;DHT22;23517;50.390;8.616;2023-09-07T01:58:01;14.00;65.40
37678;DHT22;23517;50.390;8.616;2023-09-07T02:00:28;14.00;66.20
37678;DHT22;23517;50.390;8.616;2023-09-07T02:02:55;14.00;64.30
37678;DHT22;23517;50.390;8.616;2023-09-07T02:05:21;13.90;64.10
37678;DHT22;23517;50.390;8.616;2023-09-07T02:07:49;13.90;65.40
37678;DHT22;23517;50.390;8.616;2023-09-07T02:10:18;13.90;66.20
37678;DHT22;23517;50.390;8.616;2023-09-07T02:12:46;13.90;63.70
37678;DHT22;23517;50.390;8.616;2023-09-07T02:15:14;13.80;64.40
37678;DHT22;23517;50.390;8.616;2023-09-07T02:17:41;13.70;65.40
37678;DHT22;23517;50.390;8.616;2023-09-07T02:20:12;13.70;65.60
37678;DHT22;23517;50.390;8.616;2023-09-07T02:22:38;13.60;64.50
37678;DHT22;23517;50.390;8.616;2023-09-07T02:25:06;13.50;65.60
37678;DHT22;23517;50.390;8.616;2023-09-07T02:27:33;13.60;65.70
37678;DHT22;23517;50.390;8.616;2023-09-07T02:30:01;13.60;65.30
37678;DHT22;23517;50.390;8.616;2023-09-07T02:36:35;13.40;65.80
37678;DHT22;23517;50.390;8.616;2023-09-07T02:39:02;13.50;66.40
37678;DHT22;23517;50.390;8.616;2023-09-07T02:41:31;13.50;65.90
37678;DHT22;23517;50.390;8.616;2023-09-07T02:43:58;13.40;65.90
37678;DHT22;23517;50.390;8.616;2023-09-07T02:46:25;13.40;65.80
37678;DHT22;23517;50.390;8.616;2023-09-07T02:48:52;13.30;65.80
37678;DHT22;23517;50.390;8.616;2023-09-07T02:51:22;13.30;65.80
37678;DHT22;23517;50.390;8.616;2023-09-07T02:53:50;13.30;65.80
37678;DHT22;23517;50.390;8.616;2023-09-07T02:56:17;13.30;65.50
37678;DHT22;23517;50.390;8.616;2023-09-07T02:58:44;13.20;65.80
37678;DHT22;23517;50.390;8.616;2023-09-07T03:01:11;13.20;65.70
37678;DHT22;23517;50.390;8.616;2023-09-07T03:03:42;13.20;65.40
37678;DHT22;23517;50.390;8.616;2023-09-07T03:06:10;13.20;65.80
37678;DHT22;23517;50.390;8.616;2023-09-07T03:08:39;13.20;66.20
37678;DHT22;23517;50.390;8.616;2023-09-07T03:11:08;13.20;65.80
37678;DHT22;23517;50.390;8.616;2023-09-07T03:13:35;13.10;65.30
37678;DHT22;23517;50.390;8.616;2023-09-07T03:16:03;13.20;66.20
37678;DHT22;23517;50.390;8.616;2023-09-07T03:18:31;13.10;65.00
37678;DHT22;23517;50.390;8.616;2023-09-07T03:21:00;13.10;65.40
37678;DHT22;23517;50.390;8.616;2023-09-07T03:23:28;13.00;65.70
37678;DHT22;23517;50.390;8.616;2023-09-07T03:25:56;13.00;67.20
37678;DHT22;23517;50.390;8.616;2023-09-07T03:28:23;13.00;68.40
37678;DHT22;23517;50.390;8.616;2023-09-07T03:30:53;13.00;68.70
37678;DHT22;23517;50.390;8.616;2023-09-07T03:33:20;13.00;68.10
37678;DHT22;23517;50.390;8.616;2023-09-07T03:35:47;13.10;69.90
37678;DHT22;23517;50.390;8.616;2023-09-07T03:38:14;13.10;68.20
37678;DHT22;23517;50.390;8.616;2023-09-07T03:40:41;13.00;67.50
37678;DHT22;23517;50.390;8.616;2023-09-07T03:43:09;13.00;67.60
37678;DHT22;23517;50.390;8.616;2023-09-07T03:45:36;13.00;68.50
37678;DHT22;23517;50.390;8.616;2023-09-07T03:48:03;13.00;69.10
37678;DHT22;23517;50.390;8.616;2023-09-07T03:50:30;13.00;67.70
37678;DHT22;23517;50.390;8.616;2023-09-07T03:52:57;12.90;68.30
37678;DHT22;23517;50.390;8.616;2023-09-07T03:55:24;12.90;68.40
37678;DHT22;23517;50.390;8.616;2023-09-07T03:57:50;13.00;67.40
37678;DHT22;23517;50.390;8.616;2023-09-07T04:00:18;12.90;67.00
37678;DHT22;23517;50.390;8.616;2023-09-07T04:02:46;12.80;68.80
37678;DHT22;23517;50.390;8.616;2023-09-07T04:05:13;12.70;67.80
37678;DHT22;23517;50.390;8.616;2023-09-07T04:07:40;12.70;68.30
37678;DHT22;23517;50.390;8.616;2023-09-07T04:10:06;12.70;67.90
37678;DHT22;23517;50.390;8.616;2023-09-07T04:12:33;12.60;67.30
37678;DHT22;23517;50.390;8.616;2023-09-07T04:15:02;12.60;68.90
37678;DHT22;23517;50.390;8.616;2023-09-07T04:17:29;12.60;70.20
37678;DHT22;23517;50.390;8.616;2023-09-07T04:19:56;12.60;70.60
37678;DHT22;23517;50.390;8.616;2023-09-07T04:22:23;12.60;71.80
37678;DHT22;23517;50.390;8.616;2023-09-07T04:24:49;12.70;71.10
37678;DHT22;23517;50.390;8.616;2023-09-07T04:27:16;12.70;69.70
37678;DHT22;23517;50.390;8.616;2023-09-07T04:29:43;12.70;69.50
37678;DHT22;23517;50.390;8.616;2023-09-07T04:32:10;12.60;68.60
37678;DHT22;23517;50.390;8.616;2023-09-07T04:34:36;12.60;69.70
37678;DHT22;23517;50.390;8.616;2023-09-07T04:37:03;12.60;70.10
37678;DHT22;23517;50.390;8.616;2023-09-07T04:39:30;12.60;69.30
37678;DHT22;23517;50.390;8.616;2023-09-07T04:41:57;12.60;69.00
37678;DHT22;23517;50.390;8.616;2023-09-07T04:44:25;12.60;68.40
37678;DHT22;23517;50.390;8.616;2023-09-07T04:46:55;12.60;68.70
37678;DHT22;23517;50.390;8.616;2023-09-07T04:49:23;12.60;69.10
37678;DHT22;23517;50.390;8.616;2023-09-07T04:51:53;12.60;70.10
37678;DHT22;23517;50.390;8.616;2023-09-07T04:54:20;12.60;70.40
37678;DHT22;23517;50.390;8.616;2023-09-07T04:56:47;12.60;69.00
37678;DHT22;23517;50.390;8.616;2023-09-07T04:59:14;12.60;68.80
37678;DHT22;23517;50.390;8.616;2023-09-07T05:01:41;12.60;69.20
37678;DHT22;23517;50.390;8.616;2023-09-07T05:04:08;12.60;70.30
37678;DHT22;23517;50.390;8.616;2023-09-07T05:06:35;12.70;70.90
37678;DHT22;23517;50.390;8.616;2023-09-07T05:09:04;12.70;70.70
37678;DHT22;23517;50.390;8.616;2023-09-07T05:11:30;12.70;69.40
37678;DHT22;23517;50.390;8.616;2023-09-07T05:13:57;12.70;69.00
37678;DHT22;23517;50.390;8.616;2023-09-07T05:16:24;12.70;69.00
37678;DHT22;23517;50.390;8.616;2023-09-07T05:18:51;12.70;68.80
37678;DHT22;23517;50.390;8.616;2023-09-07T05:21:18;12.70;69.70
37678;DHT22;23517;50.390;8.616;2023-09-07T05:23:46;12.70;70.10
37678;DHT22;23517;50.390;8.616;2023-09-07T05:26:13;12.70;69.20
37678;DHT22;23517;50.390;8.616;2023-09-07T05:28:40;12.80;69.80
37678;DHT22;23517;50.390;8.616;2023-09-07T05:31:08;12.70;70.00
37678;DHT22;23517;50.390;8.616;2023-09-07T05:33:35;12.80;70.30
37678;DHT22;23517;50.390;8.616;2023-09-07T05:36:02;12.80;70.30
37678;DHT22;23517;50.390;8.616;2023-09-07T05:38:29;12.80;71.10
37678;DHT22;23517;50.390;8.616;2023-09-07T05:40:59;12.80;70.80
37678;DHT22;23517;50.390;8.616;2023-09-07T05:43:25;12.90;70.30
37678;DHT22;23517;50.390;8.616;2023-09-07T05:45:52;13.00;70.60
37678;DHT22;23517;50.390;8.616;2023-09-07T05:48:19;13.00;71.60
37678;DHT22;23517;50.390;8.616;2023-09-07T05:50:49;13.10;70.90
37678;DHT22;23517;50.390;8.616;2023-09-07T05:53:17;13.20;70.60
37678;DHT22;23517;50.390;8.616;2023-09-07T05:55:45;13.20;71.00
37678;DHT22;23517;50.390;8.616;2023-09-07T05:58:12;13.30;71.00
37678;DHT22;23517;50.390;8.616;2023-09-07T06:00:39;13.40;72.30
37678;DHT22;23517;50.390;8.616;2023-09-07T06:03:07;13.50;72.50
37678;DHT22;23517;50.390;8.616;2023-09-07T06:05:35;13.70;72.80
37678;DHT22;23517;50.390;8.616;2023-09-07T06:08:03;13.80;72.50
37678;DHT22;23517;50.390;8.616;2023-09-07T06:10:30;14.00;72.20
37678;DHT22;23517;50.390;8.616;2023-09-07T06:12:58;14.20;71.50
37678;DHT22;23517;50.390;8.616;2023-09-07T06:15:27;14.40;71.80
37678;DHT22;23517;50.390;8.616;2023-09-07T06:17:54;14.60;69.80
37678;DHT22;23517;50.390;8.616;2023-09-07T06:20:21;14.90;69.30
37678;DHT22;23517;50.390;8.616;2023-09-07T06:22:48;15.00;69.00
37678;DHT22;23517;50.390;8.616;2023-09-07T06:25:15;15.30;67.00
37678;DHT22;23517;50.390;8.616;2023-09-07T06:27:42;15.50;66.20
37678;DHT22;23517;50.390;8.616;2023-09-07T06:30:10;15.80;66.40
37678;DHT22;23517;50.390;8.616;2023-09-07T06:32:37;16.00;64.60
37678;DHT22;23517;50.390;8.616;2023-09-07T06:35:05;16.30;63.40
37678;DHT22;23517;50.390;8.616;2023-09-07T06:37:32;16.90;61.40
37678;DHT22;23517;50.390;8.616;2023-09-07T06:39:59;18.20;57.40
37678;DHT22;23517;50.390;8.616;2023-09-07T06:42:26;19.90;49.20
37678;DHT22;23517;50.390;8.616;2023-09-07T06:44:53;21.40;42.00
37678;DHT22;23517;50.390;8.616;2023-09-07T06:47:19;22.70;38.60
37678;DHT22;23517;50.390;8.616;2023-09-07T06:49:46;25.00;30.10
37678;DHT22;23517;50.390;8.616;2023-09-07T06:54:42;26.60;26.50
37678;DHT22;23517;50.390;8.616;2023-09-07T06:57:08;27.10;25.20
37678;DHT22;23517;50.390;8.616;2023-09-07T06:59:35;27.50;23.30
37678;DHT22;23517;50.390;8.616;2023-09-07T07:02:02;27.60;23.60
37678;DHT22;23517;50.390;8.616;2023-09-07T07:04:31;28.00;21.60
37678;DHT22;23517;50.390;8.616;2023-09-07T07:06:58;28.80;21.90
37678;DHT22;23517;50.390;8.616;2023-09-07T07:09:27;29.80;18.90
37678;DHT22;23517;50.390;8.616;2023-09-07T07:11:56;29.10;20.60
37678;DHT22;23517;50.390;8.616;2023-09-07T07:14:24;30.30;19.00
37678;DHT22;23517;50.390;8.616;2023-09-07T07:16:51;31.20;17.90
37678;DHT22;23517;50.390;8.616;2023-09-07T07:19:17;32.20;15.30
37678;DHT22;23517;50.390;8.616;2023-09-07T07:21:59;32.90;13.00
37678;DHT22;23517;50.390;8.616;2023-09-07T07:24:26;33.40;13.00
37678;DHT22;23517;50.390;8.616;2023-09-07T07:26:53;33.40;13.40
37678;DHT22;23517;50.390;8.616;2023-09-07T07:29:19;33.90;13.20
37678;DHT22;23517;50.390;8.616;2023-09-07T07:31:46;33.80;13.20
37678;DHT22;23517;50.390;8.616;2023-09-07T07:34:14;33.80;10.70
37678;DHT22;23517;50.390;8.616;2023-09-07T07:36:41;34.10;12.30
37678;DHT22;23517;50.390;8.616;2023-09-07T07:39:07;34.10;12.00
37678;DHT22;23517;50.390;8.616;2023-09-07T07:41:34;33.90;10.90
37678;DHT22;23517;50.390;8.616;2023-09-07T07:44:02;34.30;11.50
37678;DHT22;23517;50.390;8.616;2023-09-07T07:46:29;34.80;9.90
37678;DHT22;23517;50.390;8.616;2023-09-07T07:48:56;34.60;10.60
37678;DHT22;23517;50.390;8.616;2023-09-07T07:51:22;35.10;10.60
37678;DHT22;23517;50.390;8.616;2023-09-07T07:53:49;35.40;10.40
37678;DHT22;23517;50.390;8.616;2023-09-07T07:56:17;35.90;9.40
37678;DHT22;23517;50.390;8.616;2023-09-07T07:58:44;35.80;9.10
37678;DHT22;23517;50.390;8.616;2023-09-07T08:01:15;35.60;10.00
37678;DHT22;23517;50.390;8.616;2023-09-07T08:06:11;36.80;8.50
37678;DHT22;23517;50.390;8.616;2023-09-07T08:08:39;35.90;10.00
37678;DHT22;23517;50.390;8.616;2023-09-07T08:11:06;35.80;9.50
37678;DHT22;23517;50.390;8.616;2023-09-07T08:13:33;35.90;9.20
37678;DHT22;23517;50.390;8.616;2023-09-07T08:16:01;35.40;10.00
37678;DHT22;23517;50.390;8.616;2023-09-07T08:18:29;35.00;10.60
37678;DHT22;23517;50.390;8.616;2023-09-07T08:20:58;35.70;9.50
37678;DHT22;23517;50.390;8.616;2023-09-07T08:23:25;36.30;9.10
37678;DHT22;23517;50.390;8.616;2023-09-07T08:26:02;36.10;9.60
37678;DHT22;23517;50.390;8.616;2023-09-07T08:28:29;36.50;8.70
37678;DHT22;23517;50.390;8.616;2023-09-07T08:30:57;36.50;8.10
37678;DHT22;23517;50.390;8.616;2023-09-07T08:33:26;36.00;9.10
37678;DHT22;23517;50.390;8.616;2023-09-07T08:35:56;36.20;9.40
37678;DHT22;23517;50.390;8.616;2023-09-07T08:38:23;35.70;10.00
37678;DHT22;23517;50.390;8.616;2023-09-07T08:40:54;35.80;10.00
37678;DHT22;23517;50.390;8.616;2023-09-07T08:43:28;35.10;10.00
37678;DHT22;23517;50.390;8.616;2023-09-07T08:46:01;35.80;9.30
37678;DHT22;23517;50.390;8.616;2023-09-07T08:48:32;35.90;9.60
37678;DHT22;23517;50.390;8.616;2023-09-07T08:50:59;36.90;7.80
37678;DHT22;23517;50.390;8.616;2023-09-07T08:53:27;36.30;8.80
37678;DHT22;23517;50.390;8.616;2023-09-07T08:55:56;36.10;9.30
37678;DHT22;23517;50.390;8.616;2023-09-07T08:58:24;36.40;9.20
37678;DHT22;23517;50.390;8.616;2023-09-07T09:00:50;36.30;9.10
37678;DHT22;23517;50.390;8.616;2023-09-07T09:03:19;36.50;8.50
37678;DHT22;23517;50.390;8.616;2023-09-07T09:05:50;37.30;8.40
37678;DHT22;23517;50.390;8.616;2023-09-07T09:08:17;37.10;8.50
37678;DHT22;23517;50.390;8.616;2023-09-07T09:11:01;37.20;8.70
37678;DHT22;23517;50.390;8.616;2023-09-07T09:13:30;37.30;8.50
37678;DHT22;23517;50.390;8.616;2023-09-07T09:16:00;36.50;9.00
37678;DHT22;23517;50.390;8.616;2023-09-07T09:18:29;36.80;8.70
37678;DHT22;23517;50.390;8.616;2023-09-07T09:20:57;37.20;8.70
37678;DHT22;23517;50.390;8.616;2023-09-07T09:23:36;37.70;8.10
37678;DHT22;23517;50.390;8.616;2023-09-07T09:26:04;37.50;8.30
37678;DHT22;23517;50.390;8.616;2023-09-07T09:28:32;37.60;8.10
37678;DHT22;23517;50.390;8.616;2023-09-07T09:31:01;37.90;7.70
37678;DHT22;23517;50.390;8.616;2023-09-07T09:33:31;37.00;9.10
37678;DHT22;23517;50.390;8.616;2023-09-07T09:35:58;37.70;8.50
37678;DHT22;23517;50.390;8.616;2023-09-07T09:38:25;37.70;8.00
37678;DHT22;23517;50.390;8.616;2023-09-07T09:40:53;36.90;9.00
37678;DHT22;23517;50.390;8.616;2023-09-07T09:43:20;34.70;10.90
37678;DHT22;23517;50.390;8.616;2023-09-07T09:48:20;31.10;14.30
37678;DHT22;23517;50.390;8.616;2023-09-07T09:50:50;29.90;15.60
37678;DHT22;23517;50.390;8.616;2023-09-07T09:55:47;28.30;17.80
37678;DHT22;23517;50.390;8.616;2023-09-07T10:00:45;27.50;19.80
37678;DHT22;23517;50.390;8.616;2023-09-07T10:04:06;27.20;20.40
37678;DHT22;23517;50.390;8.616;2023-09-07T10:06:26;27.00;21.00
37678;DHT22;23517;50.390;8.616;2023-09-07T10:11:35;26.50;20.90
37678;DHT22;23517;50.390;8.616;2023-09-07T10:14:07;26.40;21.50
37678;DHT22;23517;50.390;8.616;2023-09-07T10:16:50;26.10;23.30
37678;DHT22;23517;50.390;8.616;2023-09-07T10:19:21;26.00;22.60
37678;DHT22;23517;50.390;8.616;2023-09-07T10:21:50;26.00;22.80
37678;DHT22;23517;50.390;8.616;2023-09-07T10:24:35;26.00;23.00
37678;DHT22;23517;50.390;8.616;2023-09-07T10:27:08;25.90;21.20
37678;DHT22;23517;50.390;8.616;2023-09-07T10:29:51;25.90;21.30
37678;DHT22;23517;50.390;8.616;2023-09-07T10:32:22;25.70;22.50
37678;DHT22;23517;50.390;8.616;2023-09-07T10:34:50;25.80;22.20
37678;DHT22;23517;50.390;8.616;2023-09-07T10:37:17;25.80;21.90
37678;DHT22;23517;50.390;8.616;2023-09-07T10:39:44;25.80;21.70
37678;DHT22;23517;50.390;8.616;2023-09-07T10:42:22;25.70;21.60
37678;DHT22;23517;50.390;8.616;2023-09-07T10:44:50;25.70;21.30
37678;DHT22;23517;50.390;8.616;2023-09-07T10:47:17;25.70;21.10
37678;DHT22;23517;50.390;8.616;2023-09-07T10:49:44;25.70;21.00
37678;DHT22;23517;50.390;8.616;2023-09-07T10:52:11;25.90;21.20
37678;DHT22;23517;50.390;8.616;2023-09-07T10:54:39;25.80;19.60
37678;DHT22;23517;50.390;8.616;2023-09-07T10:57:12;25.80;18.80
37678;DHT22;23517;50.390;8.616;2023-09-07T10:59:46;25.90;19.10
37678;DHT22;23517;50.390;8.616;2023-09-07T11:02:14;26.00;19.80
37678;DHT22;23517;50.390;8.616;2023-09-07T11:04:42;26.00;19.00
37678;DHT22;23517;50.390;8.616;2023-09-07T11:07:09;26.10;19.30
37678;DHT22;23517;50.390;8.616;2023-09-07T11:09:40;26.00;19.70
37678;DHT22;23517;50.390;8.616;2023-09-07T11:12:08;25.90;19.80
37678;DHT22;23517;50.390;8.616;2023-09-07T11:14:39;26.00;19.80
37678;DHT22;23517;50.390;8.616;2023-09-07T11:17:06;26.00;20.40
37678;DHT22;23517;50.390;8.616;2023-09-07T11:19:33;26.20;20.00
37678;DHT22;23517;50.390;8.616;2023-09-07T11:22:00;26.20;20.30
37678;DHT22;23517;50.390;8.616;2023-09-07T11:24:27;26.20;19.70
37678;DHT22;23517;50.390;8.616;2023-09-07T11:26:57;26.30;20.20
37678;DHT22;23517;50.390;8.616;2023-09-07T11:29:24;26.20;19.90
37678;DHT22;23517;50.390;8.616;2023-09-07T11:31:51;26.20;20.00
37678;DHT22;23517;50.390;8.616;2023-09-07T11:34:18;26.40;19.50
37678;DHT22;23517;50.390;8.616;2023-09-07T11:36:44;26.40;19.80
37678;DHT22;23517;50.390;8.616;2023-09-07T11:39:11;26.40;19.30
37678;DHT22;23517;50.390;8.616;2023-09-07T11:41:42;26.50;18.70
37678;DHT22;23517;50.390;8.616;2023-09-07T11:44:10;26.40;20.00
37678;DHT22;23517;50.390;8.616;2023-09-07T11:46:38;26.40;20.30
37678;DHT22;23517;50.390;8.616;2023-09-07T11:49:05;26.50;19.60
37678;DHT22;23517;50.390;8.616;2023-09-07T11:51:32;26.50;19.50
37678;DHT22;23517;50.390;8.616;2023-09-07T11:54:01;26.60;18.90
37678;DHT22;23517;50.390;8.616;2023-09-07T11:56:28;26.60;19.00
37678;DHT22;23517;50.390;8.616;2023-09-07T11:58:55;26.80;19.20
37678;DHT22;23517;50.390;8.616;2023-09-07T12:01:23;26.80;19.00
37678;DHT22;23517;50.390;8.616;2023-09-07T12:03:49;26.70;18.80
37678;DHT22;23517;50.390;8.616;2023-09-07T12:06:16;26.70;18.70
37678;DHT22;23517;50.390;8.616;2023-09-07T12:08:58;26.80;19.10
37678;DHT22;23517;50.390;8.616;2023-09-07T12:11:26;26.80;19.50
37678;DHT22;23517;50.390;8.616;2023-09-07T12:13:52;26.80;19.70
37678;DHT22;23517;50.390;8.616;2023-09-07T12:16:19;26.80;19.30
37678;DHT22;23517;50.390;8.616;2023-09-07T12:18:46;26.80;19.20
37678;DHT22;23517;50.390;8.616;2023-09-07T12:21:13;26.80;19.10
37678;DHT22;23517;50.390;8.616;2023-09-07T12:23:39;26.80;19.20
37678;DHT22;23517;50.390;8.616;2023-09-07T12:26:06;27.00;18.50
37678;DHT22;23517;50.390;8.616;2023-09-07T12:28:33;27.10;18.50
37678;DHT22;23517;50.390;8.616;2023-09-07T12:30:59;27.10;18.50
37678;DHT22;23517;50.390;8.616;2023-09-07T12:33:26;27.10;18.70
37678;DHT22;23517;50.390;8.616;2023-09-07T12:35:56;27.20;18.10
37678;DHT22;23517;50.390;8.616;2023-09-07T12:38:22;27.20;18.70
37678;DHT22;23517;50.390;8.616;2023-09-07T12:40:54;27.30;17.30
37678;DHT22;23517;50.390;8.616;2023-09-07T12:43:21;27.20;17.80
37678;DHT22;23517;50.390;8.616;2023-09-07T12:45:48;27.30;17.30
37678;DHT22;23517;50.390;8.616;2023-09-07T12:48:14;27.20;18.00
37678;DHT22;23517;50.390;8.616;2023-09-07T12:50:42;27.30;18.40
37678;DHT22;23517;50.390;8.616;2023-09-07T12:53:09;27.30;17.40
37678;DHT22;23517;50.390;8.616;2023-09-07T12:55:36;27.40;17.70
37678;DHT22;23517;50.390;8.616;2023-09-07T12:58:03;27.40;17.40
37678;DHT22;23517;50.390;8.616;2023-09-07T13:00:30;27.40;17.70
37678;DHT22;23517;50.390;8.616;2023-09-07T13:02:56;27.50;17.70
37678;DHT22;23517;50.390;8.616;2023-09-07T13:05:23;27.50;17.60
37678;DHT22;23517;50.390;8.616;2023-09-07T13:07:50;27.50;17.80
37678;DHT22;23517;50.390;8.616;2023-09-07T13:10:17;27.50;18.00
37678;DHT22;23517;50.390;8.616;2023-09-07T13:12:45;27.50;17.30
37678;DHT22;23517;50.390;8.616;2023-09-07T13:15:11;27.60;17.20
37678;DHT22;23517;50.390;8.616;2023-09-07T13:17:38;27.60;17.50
37678;DHT22;23517;50.390;8.616;2023-09-07T13:20:06;27.50;17.20
37678;DHT22;23517;50.390;8.616;2023-09-07T13:22:33;27.60;17.10
37678;DHT22;23517;50.390;8.616;2023-09-07T13:25:00;27.50;16.00
37678;DHT22;23517;50.390;8.616;2023-09-07T13:27:27;27.60;16.70
37678;DHT22;23517;50.390;8.616;2023-09-07T13:29:54;27.60;16.50
37678;DHT22;23517;50.390;8.616;2023-09-07T13:32:20;27.70;16.00
37678;DHT22;23517;50.390;8.616;2023-09-07T13:34:47;27.70;15.70
37678;DHT22;23517;50.390;8.616;2023-09-07T13:37:14;27.70;16.20
37678;DHT22;23517;50.390;8.616;2023-09-07T13:39:40;27.60;16.60
37678;DHT22;23517;50.390;8.616;2023-09-07T13:42:07;27.70;16.50
37678;DHT22;23517;50.390;8.616;2023-09-07T13:44:34;27.80;15.90
37678;DHT22;23517;50.390;8.616;2023-09-07T13:47:00;27.80;16.20
37678;DHT22;23517;50.390;8.616;2023-09-07T13:49:27;27.80;16.50
37678;DHT22;23517;50.390;8.616;2023-09-07T13:51:54;27.80;15.70
37678;DHT22;23517;50.390;8.616;2023-09-07T13:54:20;27.80;16.40
37678;DHT22;23517;50.390;8.616;2023-09-07T13:56:47;27.80;15.90
37678;DHT22;23517;50.390;8.616;2023-09-07T13:59:14;27.80;16.30
37678;DHT22;23517;50.390;8.616;2023-09-07T14:01:40;27.90;14.90
37678;DHT22;23517;50.390;8.616;2023-09-07T14:04:07;27.90;15.30
37678;DHT22;23517;50.390;8.616;2023-09-07T14:06:34;27.90;14.00
37678;DHT22;23517;50.390;8.616;2023-09-07T14:09:00;27.90;14.40
37678;DHT22;23517;50.390;8.616;2023-09-07T14:11:27;27.90;14.50
37678;DHT22;23517;50.390;8.616;2023-09-07T14:13:54;28.00;15.00
37678;DHT22;23517;50.390;8.616;2023-09-07T14:16:21;28.00;15.90
37678;DHT22;23517;50.390;8.616;2023-09-07T14:18:49;28.10;15.20
37678;DHT22;23517;50.390;8.616;2023-09-07T14:21:17;28.10;15.00
37678;DHT22;23517;50.390;8.616;2023-09-07T14:23:44;28.20;14.00
37678;DHT22;23517;50.390;8.616;2023-09-07T14:26:11;28.20;14.90
37678;DHT22;23517;50.390;8.616;2023-09-07T14:28:38;28.20;14.60
37678;DHT22;23517;50.390;8.616;2023-09-07T14:31:06;28.20;14.60
37678;DHT22;23517;50.390;8.616;2023-09-07T14:33:34;28.20;14.10
37678;DHT22;23517;50.390;8.616;2023-09-07T14:36:05;28.10;14.10
37678;DHT22;23517;50.390;8.616;2023-09-07T14:38:32;28.20;13.50
37678;DHT22;23517;50.390;8.616;2023-09-07T14:41:06;28.10;14.40
37678;DHT22;23517;50.390;8.616;2023-09-07T14:43:34;28.10;14.50
37678;DHT22;23517;50.390;8.616;2023-09-07T14:46:01;28.10;13.50
37678;DHT22;23517;50.390;8.616;2023-09-07T14:48:28;28.20;13.50
37678;DHT22;23517;50.390;8.616;2023-09-07T14:50:55;28.20;13.10
37678;DHT22;23517;50.390;8.616;2023-09-07T14:53:21;28.20;13.80
37678;DHT22;23517;50.390;8.616;2023-09-07T14:55:48;28.20;13.90
37678;DHT22;23517;50.390;8.616;2023-09-07T14:58:16;28.20;14.70
37678;DHT22;23517;50.390;8.616;2023-09-07T15:00:43;28.20;15.30
37678;DHT22;23517;50.390;8.616;2023-09-07T15:03:10;28.10;15.60
37678;DHT22;23517;50.390;8.616;2023-09-07T15:05:36;28.20;15.60
37678;DHT22;23517;50.390;8.616;2023-09-07T15:08:03;28.20;14.60
37678;DHT22;23517;50.390;8.616;2023-09-07T15:10:31;28.10;15.00
37678;DHT22;23517;50.390;8.616;2023-09-07T15:13:01;28.10;15.30
37678;DHT22;23517;50.390;8.616;2023-09-07T15:15:30;28.20;14.60
37678;DHT22;23517;50.390;8.616;2023-09-07T15:18:00;28.20;14.50
37678;DHT22;23517;50.390;8.616;2023-09-07T15:20:27;28.20;14.50
37678;DHT22;23517;50.390;8.616;2023-09-07T15:22:54;28.10;14.80
37678;DHT22;23517;50.390;8.616;2023-09-07T15:25:21;28.10;15.30
37678;DHT22;23517;50.390;8.616;2023-09-07T15:27:48;28.00;15.30
37678;DHT22;23517;50.390;8.616;2023-09-07T15:30:15;28.00;16.00
37678;DHT22;23517;50.390;8.616;2023-09-07T15:32:42;28.00;15.80
37678;DHT22;23517;50.390;8.616;2023-09-07T15:35:09;28.00;15.40
37678;DHT22;23517;50.390;8.616;2023-09-07T15:37:36;27.90;15.30
37678;DHT22;23517;50.390;8.616;2023-09-07T15:40:03;27.90;15.00
37678;DHT22;23517;50.390;8.616;2023-09-07T15:42:30;27.90;15.20
37678;DHT22;23517;50.390;8.616;2023-09-07T15:44:57;27.80;15.50
37678;DHT22;23517;50.390;8.616;2023-09-07T15:47:23;27.70;15.80
37678;DHT22;23517;50.390;8.616;2023-09-07T15:49:52;27.70;16.50
37678;DHT22;23517;50.390;8.616;2023-09-07T15:52:19;27.70;16.50
37678;DHT22;23517;50.390;8.616;2023-09-07T15:54:46;27.70;16.30
37678;DHT22;23517;50.390;8.616;2023-09-07T15:57:13;27.60;16.50